Kelowna, Canada
Current Conditions -  °F | °C
As of 5:00 PM on Monday 20 Oct 2014 (Local Time) from CYLW Reporting Station
Light Rain Light Rain  
Wind Chill: 55°   Ceiling: 7500
Heat Index: 55°   Visibility: 9mi
Dew Point: 52°   Wind: 9mph
Humidity: 88%   Direction: 110°ESE
Pressure: 29.71"   Gusts: NA
Location:  49.89°N, 119.5°W
Report Text: CYLW 210000Z AUTO 11008KT 090V210 9SM -RA OVC075 13/11 A2971 RMK PRESRR TS/LTNG TEMPO UNAVBL SLP067 DENSITY ALT 1700FT
Loading
Personal Weather Stations






























Interactive Weather Map
Tropical Storm Tracking
New forecast layout! Learn more

10-Day Weather Forecast

Advertisements
Track Severe Weather on mobile